sensor_id;sensor_type;location;lat;lon;timestamp;pressure;altitude;pressure_sealevel;temperature;humidity
15007;BME280;7599;50.748;13.142;2023-08-08T00:02:31;95557.75;;;17.19;75.29
15007;BME280;7599;50.748;13.142;2023-08-08T00:05:34;95553.47;;;17.18;75.67
15007;BME280;7599;50.748;13.142;2023-08-08T00:08:37;95552.75;;;17.21;75.63
15007;BME280;7599;50.748;13.142;2023-08-08T00:11:39;95553.47;;;17.18;75.75
15007;BME280;7599;50.748;13.142;2023-08-08T00:14:42;95549.59;;;17.19;75.54
15007;BME280;7599;50.748;13.142;2023-08-08T00:17:47;95553.91;;;17.20;75.73
15007;BME280;7599;50.748;13.142;2023-08-08T00:20:50;95548.03;;;17.18;75.59
15007;BME280;7599;50.748;13.142;2023-08-08T00:23:53;95548.03;;;17.18;75.49
15007;BME280;7599;50.748;13.142;2023-08-08T00:26:56;95552.69;;;17.17;75.55
15007;BME280;7599;50.748;13.142;2023-08-08T00:29:59;95553.47;;;17.18;75.73
15007;BME280;7599;50.748;13.142;2023-08-08T00:33:04;95548.41;;;17.16;75.44
15007;BME280;7599;50.748;13.142;2023-08-08T00:36:09;95557.41;;;17.20;75.25
15007;BME280;7599;50.748;13.142;2023-08-08T00:39:12;95544.13;;;17.15;75.75
15007;BME280;7599;50.748;13.142;2023-08-08T00:42:19;95539.91;;;17.18;75.77
15007;BME280;7599;50.748;13.142;2023-08-08T00:45:22;95544.56;;;17.17;75.73
15007;BME280;7599;50.748;13.142;2023-08-08T00:48:30;95543.41;;;17.18;75.49
15007;BME280;7599;50.748;13.142;2023-08-08T00:51:34;95539.06;;;17.14;75.68
15007;BME280;7599;50.748;13.142;2023-08-08T00:54:36;95545.72;;;17.16;75.41
15007;BME280;7599;50.748;13.142;2023-08-08T00:57:40;95544.94;;;17.19;75.74
15007;BME280;7599;50.748;13.142;2023-08-08T01:00:43;95541.06;;;17.17;75.64
15007;BME280;7599;50.748;13.142;2023-08-08T01:03:47;95538.34;;;17.17;76.00
15007;BME280;7599;50.748;13.142;2023-08-08T01:07:05;95541.06;;;17.17;75.76
15007;BME280;7599;50.748;13.142;2023-08-08T01:10:12;95532.91;;;17.17;75.55
15007;BME280;7599;50.748;13.142;2023-08-08T01:13:19;95526.25;;;17.14;75.53
15007;BME280;7599;50.748;13.142;2023-08-08T01:16:23;95521.59;;;17.15;75.89
15007;BME280;7599;50.748;13.142;2023-08-08T01:19:40;95526.69;;;17.16;75.89
15007;BME280;7599;50.748;13.142;2023-08-08T01:22:55;95530.19;;;17.17;75.22
15007;BME280;7599;50.748;13.142;2023-08-08T01:26:00;95531.34;;;17.16;75.45
15007;BME280;7599;50.748;13.142;2023-08-08T01:29:19;95535.63;;;17.17;75.36
15007;BME280;7599;50.748;13.142;2023-08-08T01:32:21;95538.34;;;17.17;75.42
15007;BME280;7599;50.748;13.142;2023-08-08T01:35:28;95539.50;;;17.16;75.34
15007;BME280;7599;50.748;13.142;2023-08-08T01:38:33;95537.13;;;17.14;75.50
15007;BME280;7599;50.748;13.142;2023-08-08T01:41:41;95538.34;;;17.17;75.80
15007;BME280;7599;50.748;13.142;2023-08-08T01:44:47;95535.63;;;17.17;75.54
15007;BME280;7599;50.748;13.142;2023-08-08T01:47:51;95530.13;;;17.13;75.81
15007;BME280;7599;50.748;13.142;2023-08-08T01:50:56;95532.47;;;17.15;75.33
15007;BME280;7599;50.748;13.142;2023-08-08T01:53:58;95528.25;;;17.17;75.65
15007;BME280;7599;50.748;13.142;2023-08-08T01:57:03;95522.41;;;17.15;75.38
15007;BME280;7599;50.748;13.142;2023-08-08T02:00:16;95517.78;;;17.16;75.40
15007;BME280;7599;50.748;13.142;2023-08-08T02:03:33;95519.28;;;17.13;75.48
15007;BME280;7599;50.748;13.142;2023-08-08T02:06:51;95509.19;;;17.14;75.95
15007;BME280;7599;50.748;13.142;2023-08-08T02:10:01;95514.63;;;17.14;75.27
15007;BME280;7599;50.748;13.142;2023-08-08T02:13:26;95514.63;;;17.14;75.22
15007;BME280;7599;50.748;13.142;2023-08-08T02:16:29;95516.19;;;17.15;75.53
15007;BME280;7599;50.748;13.142;2023-08-08T02:19:44;95519.69;;;17.15;75.34
15007;BME280;7599;50.748;13.142;2023-08-08T02:22:47;95520.47;;;17.16;75.46
15007;BME280;7599;50.748;13.142;2023-08-08T02:25:50;95523.97;;;17.16;75.82
15007;BME280;7599;50.748;13.142;2023-08-08T02:28:54;95523.19;;;17.16;75.40
15007;BME280;7599;50.748;13.142;2023-08-08T02:31:57;95515.84;;;17.16;75.37
15007;BME280;7599;50.748;13.142;2023-08-08T02:35:01;95531.34;;;17.16;75.52
15007;BME280;7599;50.748;13.142;2023-08-08T02:38:19;95531.75;;;17.18;75.65
15007;BME280;7599;50.748;13.142;2023-08-08T02:41:22;95514.25;;;17.15;75.56
15007;BME280;7599;50.748;13.142;2023-08-08T02:44:49;95521.59;;;17.15;75.25
15007;BME280;7599;50.748;13.142;2023-08-08T02:47:52;95526.69;;;17.16;75.31
15007;BME280;7599;50.748;13.142;2023-08-08T02:51:26;95518.56;;;17.16;75.51
15007;BME280;7599;50.748;13.142;2023-08-08T02:54:29;95515.84;;;17.16;75.46
15007;BME280;7599;50.748;13.142;2023-08-08T02:57:32;95527.81;;;17.15;75.20
15007;BME280;7599;50.748;13.142;2023-08-08T03:00:36;95529.75;;;17.15;75.46
15007;BME280;7599;50.748;13.142;2023-08-08T03:03:39;95526.69;;;17.16;75.17
15007;BME280;7599;50.748;13.142;2023-08-08T03:06:42;95523.19;;;17.16;75.65
15007;BME280;7599;50.748;13.142;2023-08-08T03:09:45;95522.41;;;17.15;75.32
15007;BME280;7599;50.748;13.142;2023-08-08T03:12:48;95519.69;;;17.15;75.23
15007;BME280;7599;50.748;13.142;2023-08-08T03:15:52;95520.88;;;17.18;75.29
15007;BME280;7599;50.748;13.142;2023-08-08T03:18:55;95511.97;;;17.17;75.74
15007;BME280;7599;50.748;13.142;2023-08-08T03:21:58;95512.34;;;17.16;75.29
15007;BME280;7599;50.748;13.142;2023-08-08T03:25:01;95503.34;;;17.12;75.38
15007;BME280;7599;50.748;13.142;2023-08-08T03:28:23;95508.03;;;17.15;75.28
15007;BME280;7599;50.748;13.142;2023-08-08T03:31:27;95504.97;;;17.16;75.37
15007;BME280;7599;50.748;13.142;2023-08-08T03:34:31;95504.97;;;17.16;75.14
15007;BME280;7599;50.748;13.142;2023-08-08T03:37:34;95506.09;;;17.15;75.19
15007;BME280;7599;50.748;13.142;2023-08-08T03:40:39;95502.59;;;17.15;75.62
15007;BME280;7599;50.748;13.142;2023-08-08T03:43:41;95511.91;;;17.14;75.37
15007;BME280;7599;50.748;13.142;2023-08-08T03:46:48;95513.06;;;17.13;75.15
15007;BME280;7599;50.748;13.142;2023-08-08T03:50:07;95510.75;;;17.15;75.29
15007;BME280;7599;50.748;13.142;2023-08-08T03:53:15;95520.84;;;17.14;75.79
15007;BME280;7599;50.748;13.142;2023-08-08T03:56:18;95516.19;;;17.15;75.15
15007;BME280;7599;50.748;13.142;2023-08-08T03:59:22;95516.19;;;17.15;75.46
15007;BME280;7599;50.748;13.142;2023-08-08T04:02:42;95516.97;;;17.15;75.45
15007;BME280;7599;50.748;13.142;2023-08-08T04:05:45;95503.34;;;17.12;75.45
15007;BME280;7599;50.748;13.142;2023-08-08T04:08:48;95494.84;;;17.13;75.28
15007;BME280;7599;50.748;13.142;2023-08-08T04:11:52;95490.91;;;17.11;75.54
15007;BME280;7599;50.748;13.142;2023-08-08T04:14:57;95490.97;;;17.14;75.31
15007;BME280;7599;50.748;13.142;2023-08-08T04:18:01;95482.41;;;17.12;75.76
15007;BME280;7599;50.748;13.142;2023-08-08T04:21:04;95480.47;;;17.13;75.14
15007;BME280;7599;50.748;13.142;2023-08-08T04:24:16;95481.31;;;17.17;75.51
15007;BME280;7599;50.748;13.142;2023-08-08T04:27:19;95478.91;;;17.12;75.22
15007;BME280;7599;50.748;13.142;2023-08-08T04:30:22;95487.06;;;17.12;75.55
15007;BME280;7599;50.748;13.142;2023-08-08T04:33:27;95492.50;;;17.12;75.28
15007;BME280;7599;50.748;13.142;2023-08-08T04:36:30;95481.56;;;17.08;75.07
15007;BME280;7599;50.748;13.142;2023-08-08T04:39:38;95508.03;;;17.15;75.34
15007;BME280;7599;50.748;13.142;2023-08-08T04:42:41;95506.06;;;17.12;75.40
15007;BME280;7599;50.748;13.142;2023-08-08T04:45:48;95502.13;;;17.09;75.54
15007;BME280;7599;50.748;13.142;2023-08-08T04:48:52;95509.91;;;17.11;75.22
15007;BME280;7599;50.748;13.142;2023-08-08T04:51:56;95511.91;;;17.14;75.56
15007;BME280;7599;50.748;13.142;2023-08-08T04:54:59;95502.56;;;17.11;75.48
15007;BME280;7599;50.748;13.142;2023-08-08T04:58:03;95499.47;;;17.13;75.25
15007;BME280;7599;50.748;13.142;2023-08-08T05:01:09;95502.91;;;17.09;75.35
15007;BME280;7599;50.748;13.142;2023-08-08T05:04:17;95494.44;;;17.11;75.60
15007;BME280;7599;50.748;13.142;2023-08-08T05:07:20;95498.28;;;17.10;75.49
15007;BME280;7599;50.748;13.142;2023-08-08T05:10:23;95495.94;;;17.08;74.89
15007;BME280;7599;50.748;13.142;2023-08-08T05:13:26;95499.84;;;17.11;75.02
15007;BME280;7599;50.748;13.142;2023-08-08T05:16:29;95500.63;;;17.12;75.19
15007;BME280;7599;50.748;13.142;2023-08-08T05:19:34;95508.41;;;17.13;75.10
15007;BME280;7599;50.748;13.142;2023-08-08T05:22:37;95502.19;;;17.13;75.53
15007;BME280;7599;50.748;13.142;2023-08-08T05:25:40;95504.13;;;17.12;74.99
15007;BME280;7599;50.748;13.142;2023-08-08T05:28:42;95510.34;;;17.13;74.93
15007;BME280;7599;50.748;13.142;2023-08-08T05:31:46;95506.84;;;17.12;74.96
15007;BME280;7599;50.748;13.142;2023-08-08T05:34:51;95514.63;;;17.14;75.15
15007;BME280;7599;50.748;13.142;2023-08-08T05:37:53;95508.34;;;17.09;75.41
15007;BME280;7599;50.748;13.142;2023-08-08T05:40:56;95511.06;;;17.09;75.20
15007;BME280;7599;50.748;13.142;2023-08-08T05:43:58;95518.44;;;17.09;75.23
15007;BME280;7599;50.748;13.142;2023-08-08T05:47:01;95503.28;;;17.08;75.01
15007;BME280;7599;50.748;13.142;2023-08-08T05:50:06;95509.13;;;17.10;75.41
15007;BME280;7599;50.748;13.142;2023-08-08T05:53:08;95515.00;;;17.12;74.87
15007;BME280;7599;50.748;13.142;2023-08-08T05:56:11;95508.34;;;17.09;74.93
15007;BME280;7599;50.748;13.142;2023-08-08T05:59:14;95511.50;;;17.12;75.29
15007;BME280;7599;50.748;13.142;2023-08-08T06:02:17;95509.56;;;17.12;75.21
15007;BME280;7599;50.748;13.142;2023-08-08T06:05:22;95506.84;;;17.12;74.59
15007;BME280;7599;50.748;13.142;2023-08-08T06:08:26;95516.16;;;17.11;75.07
15007;BME280;7599;50.748;13.142;2023-08-08T06:11:28;95508.78;;;17.12;74.79
15007;BME280;7599;50.748;13.142;2023-08-08T06:14:31;95500.22;;;17.09;75.02
15007;BME280;7599;50.748;13.142;2023-08-08T06:17:34;95502.56;;;17.11;74.91
15007;BME280;7599;50.748;13.142;2023-08-08T06:20:39;95516.94;;;17.12;74.73
15007;BME280;7599;50.748;13.142;2023-08-08T06:23:42;95513.06;;;17.13;74.52
15007;BME280;7599;50.748;13.142;2023-08-08T06:26:45;95511.06;;;17.09;74.58
15007;BME280;7599;50.748;13.142;2023-08-08T06:29:48;95512.22;;;17.08;74.80
15007;BME280;7599;50.748;13.142;2023-08-08T06:32:51;95516.50;;;17.09;74.84
15007;BME280;7599;50.748;13.142;2023-08-08T06:35:55;95514.94;;;17.08;75.09
15007;BME280;7599;50.748;13.142;2023-08-08T06:38:58;95512.28;;;17.12;75.09
15007;BME280;7599;50.748;13.142;2023-08-08T06:42:01;95518.88;;;17.11;74.82
15007;BME280;7599;50.748;13.142;2023-08-08T06:49:13;95514.22;;;17.12;74.81
15007;BME280;7599;50.748;13.142;2023-08-08T06:52:30;95526.19;;;17.11;75.05
15007;BME280;7599;50.748;13.142;2023-08-08T06:55:47;95532.84;;;17.13;75.18
15007;BME280;7599;50.748;13.142;2023-08-08T06:58:50;95525.06;;;17.12;74.82
15007;BME280;7599;50.748;13.142;2023-08-08T07:01:56;95531.28;;;17.12;74.83
15007;BME280;7599;50.748;13.142;2023-08-08T07:08:27;95533.22;;;17.12;74.71
15007;BME280;7599;50.748;13.142;2023-08-08T07:11:42;95519.28;;;17.13;75.00
15007;BME280;7599;50.748;13.142;2023-08-08T07:14:45;95518.03;;;17.07;75.09
15007;BME280;7599;50.748;13.142;2023-08-08T07:17:48;95521.22;;;17.13;75.31
15007;BME280;7599;50.748;13.142;2023-08-08T07:20:52;95530.84;;;17.10;74.88
15007;BME280;7599;50.748;13.142;2023-08-08T07:23:56;95532.06;;;17.13;75.11
15007;BME280;7599;50.748;13.142;2023-08-08T07:26:59;95537.50;;;17.13;75.11
15007;BME280;7599;50.748;13.142;2023-08-08T07:30:03;95532.44;;;17.11;74.89
15007;BME280;7599;50.748;13.142;2023-08-08T07:33:06;95529.34;;;17.13;75.05
15007;BME280;7599;50.748;13.142;2023-08-08T07:36:11;95529.72;;;17.11;74.92
15007;BME280;7599;50.748;13.142;2023-08-08T07:39:15;95537.88;;;17.11;74.84
15007;BME280;7599;50.748;13.142;2023-08-08T07:42:17;95523.09;;;17.08;74.88
15007;BME280;7599;50.748;13.142;2023-08-08T07:45:20;95526.63;;;17.13;75.15
15007;BME280;7599;50.748;13.142;2023-08-08T07:48:28;95520.06;;;17.14;75.05
15007;BME280;7599;50.748;13.142;2023-08-08T07:51:34;95500.25;;;17.13;75.11
15007;BME280;7599;50.748;13.142;2023-08-08T07:54:42;95500.63;;;17.12;75.01
15007;BME280;7599;50.748;13.142;2023-08-08T07:57:45;95499.84;;;17.11;74.94
15007;BME280;7599;50.748;13.142;2023-08-08T08:19:20;95520.00;;;17.10;74.79
15007;BME280;7599;50.748;13.142;2023-08-08T08:40:21;95518.06;;;17.11;74.93
15007;BME280;7599;50.748;13.142;2023-08-08T08:43:24;95526.19;;;17.11;74.75
15007;BME280;7599;50.748;13.142;2023-08-08T08:54:58;95523.94;;;17.13;75.09
15007;BME280;7599;50.748;13.142;2023-08-08T08:58:06;95521.59;;;17.11;74.77
15007;BME280;7599;50.748;13.142;2023-08-08T09:01:16;95525.06;;;17.12;75.21
15007;BME280;7599;50.748;13.142;2023-08-08T09:09:07;95517.72;;;17.12;74.54
15007;BME280;7599;50.748;13.142;2023-08-08T09:12:59;95512.22;;;17.08;74.59
15007;BME280;7599;50.748;13.142;2023-08-08T09:16:09;95511.50;;;17.12;74.97
15007;BME280;7599;50.748;13.142;2023-08-08T09:19:15;95519.66;;;17.12;74.81
15007;BME280;7599;50.748;13.142;2023-08-08T09:22:23;95506.00;;;17.08;75.04
15007;BME280;7599;50.748;13.142;2023-08-08T09:25:26;95516.50;;;17.09;74.64
15007;BME280;7599;50.748;13.142;2023-08-08T09:28:31;95516.50;;;17.09;75.04
15007;BME280;7599;50.748;13.142;2023-08-08T09:31:40;95520.38;;;17.08;74.48
15007;BME280;7599;50.748;13.142;2023-08-08T09:34:45;95516.50;;;17.09;74.84
15007;BME280;7599;50.748;13.142;2023-08-08T09:37:52;95509.06;;;17.06;74.92
15007;BME280;7599;50.748;13.142;2023-08-08T09:40:57;95515.72;;;17.09;74.64
15007;BME280;7599;50.748;13.142;2023-08-08T09:44:02;95519.22;;;17.09;74.44
15007;BME280;7599;50.748;13.142;2023-08-08T09:47:12;95507.16;;;17.07;74.98
15007;BME280;7599;50.748;13.142;2023-08-08T09:50:17;95502.09;;;17.05;74.73
15007;BME280;7599;50.748;13.142;2023-08-08T09:53:22;95498.19;;;17.03;74.01
15007;BME280;7599;50.748;13.142;2023-08-08T09:56:30;95507.56;;;17.09;74.32
15007;BME280;7599;50.748;13.142;2023-08-08T09:59:37;95499.81;;;17.07;74.24
15007;BME280;7599;50.748;13.142;2023-08-08T10:02:44;95502.13;;;17.09;74.21
15007;BME280;7599;50.748;13.142;2023-08-08T10:05:48;95501.75;;;17.07;73.84
15007;BME280;7599;50.748;13.142;2023-08-08T10:08:54;95495.16;;;17.08;74.39
15007;BME280;7599;50.748;13.142;2023-08-08T10:11:58;95500.22;;;17.09;73.61
15007;BME280;7599;50.748;13.142;2023-08-08T10:15:06;95500.22;;;17.09;74.22
15007;BME280;7599;50.748;13.142;2023-08-08T10:18:13;95490.88;;;17.07;74.14
15007;BME280;7599;50.748;13.142;2023-08-08T10:21:17;95497.88;;;17.08;74.14
15007;BME280;7599;50.748;13.142;2023-08-08T10:24:21;95493.59;;;17.07;74.28
15007;BME280;7599;50.748;13.142;2023-08-08T10:27:28;95501.75;;;17.11;73.83
15007;BME280;7599;50.748;13.142;2023-08-08T10:30:43;95504.44;;;17.07;73.88
15007;BME280;7599;50.748;13.142;2023-08-08T11:23:29;95454.03;;;17.09;73.17
15007;BME280;7599;50.748;13.142;2023-08-08T11:42:33;95426.13;;;17.09;73.49
15007;BME280;7599;50.748;13.142;2023-08-08T11:45:38;95424.19;;;17.09;73.31
15007;BME280;7599;50.748;13.142;2023-08-08T11:57:25;95420.31;;;17.11;73.25
15007;BME280;7599;50.748;13.142;2023-08-08T12:00:33;95414.53;;;17.12;73.36
15007;BME280;7599;50.748;13.142;2023-08-08T12:03:40;95419.19;;;17.12;73.38
15007;BME280;7599;50.748;13.142;2023-08-08T12:06:43;95417.59;;;17.11;73.03
15007;BME280;7599;50.748;13.142;2023-08-08T12:15:13;95411.03;;;17.12;73.01
15007;BME280;7599;50.748;13.142;2023-08-08T12:27:41;95408.31;;;17.12;72.96
15007;BME280;7599;50.748;13.142;2023-08-08T12:30:45;95405.16;;;17.09;72.99
15007;BME280;7599;50.748;13.142;2023-08-08T12:38:01;95399.00;;;17.13;72.74
15007;BME280;7599;50.748;13.142;2023-08-08T12:41:07;95399.78;;;17.13;73.00
15007;BME280;7599;50.748;13.142;2023-08-08T12:44:14;95396.28;;;17.13;73.01
15007;BME280;7599;50.748;13.142;2023-08-08T12:47:17;95400.56;;;17.14;73.28
15007;BME280;7599;50.748;13.142;2023-08-08T12:50:20;95403.66;;;17.12;72.97
15007;BME280;7599;50.748;13.142;2023-08-08T12:53:23;95397.81;;;17.10;73.21
15007;BME280;7599;50.748;13.142;2023-08-08T12:56:32;95393.16;;;17.11;72.99
15007;BME280;7599;50.748;13.142;2023-08-08T12:59:53;95395.09;;;17.10;73.01
15007;BME280;7599;50.748;13.142;2023-08-08T13:03:03;95399.41;;;17.11;73.29
15007;BME280;7599;50.748;13.142;2023-08-08T13:06:13;95388.88;;;17.09;73.08
15007;BME280;7599;50.748;13.142;2023-08-08T13:09:22;95395.09;;;17.10;73.24
15007;BME280;7599;50.748;13.142;2023-08-08T13:12:24;95402.50;;;17.13;72.73
15007;BME280;7599;50.748;13.142;2023-08-08T13:15:31;95398.25;;;17.12;72.66
15007;BME280;7599;50.748;13.142;2023-08-08T13:18:34;95401.31;;;17.11;72.70
15007;BME280;7599;50.748;13.142;2023-08-08T13:21:37;95393.53;;;17.09;72.70
15007;BME280;7599;50.748;13.142;2023-08-08T13:24:40;95389.66;;;17.10;72.99
15007;BME280;7599;50.748;13.142;2023-08-08T13:27:43;95388.47;;;17.07;72.79
15007;BME280;7599;50.748;13.142;2023-08-08T13:30:48;95373.75;;;17.08;72.62
15007;BME280;7599;50.748;13.142;2023-08-08T13:33:53;95391.59;;;17.09;72.30
15007;BME280;7599;50.748;13.142;2023-08-08T13:36:57;95394.75;;;17.12;72.77
15007;BME280;7599;50.748;13.142;2023-08-08T13:40:01;95394.75;;;17.12;72.21
15007;BME280;7599;50.748;13.142;2023-08-08T13:43:04;95396.69;;;17.11;72.26
15007;BME280;7599;50.748;13.142;2023-08-08T13:46:17;95392.03;;;17.12;72.72
15007;BME280;7599;50.748;13.142;2023-08-08T13:49:23;95384.22;;;17.10;72.27
15007;BME280;7599;50.748;13.142;2023-08-08T13:52:30;95392.38;;;17.10;72.40
15007;BME280;7599;50.748;13.142;2023-08-08T13:55:35;95393.16;;;17.11;72.37
15007;BME280;7599;50.748;13.142;2023-08-08T13:58:43;95388.88;;;17.09;72.47
15007;BME280;7599;50.748;13.142;2023-08-08T14:01:48;95376.09;;;17.10;72.15
15007;BME280;7599;50.748;13.142;2023-08-08T14:04:51;95381.16;;;17.12;71.96
15007;BME280;7599;50.748;13.142;2023-08-08T14:07:54;95383.09;;;17.11;72.12
15007;BME280;7599;50.748;13.142;2023-08-08T14:10:58;95385.75;;;17.07;72.30
15007;BME280;7599;50.748;13.142;2023-08-08T14:14:01;95388.16;;;17.13;72.20
15007;BME280;7599;50.748;13.142;2023-08-08T14:17:05;95393.59;;;17.13;72.25
15007;BME280;7599;50.748;13.142;2023-08-08T14:20:09;95390.81;;;17.09;72.37
15007;BME280;7599;50.748;13.142;2023-08-08T14:23:13;95392.38;;;17.10;72.27
15007;BME280;7599;50.748;13.142;2023-08-08T14:26:16;95392.03;;;17.12;72.30
15007;BME280;7599;50.748;13.142;2023-08-08T14:29:18;95402.50;;;17.13;72.35
15007;BME280;7599;50.748;13.142;2023-08-08T14:32:23;95407.94;;;17.13;72.09
15007;BME280;7599;50.748;13.142;2023-08-08T14:35:28;95406.78;;;17.14;72.15
15007;BME280;7599;50.748;13.142;2023-08-08T14:38:34;95401.72;;;17.13;72.35
15007;BME280;7599;50.748;13.142;2023-08-08T14:41:40;95413.00;;;17.15;72.37
15007;BME280;7599;50.748;13.142;2023-08-08T14:44:57;95410.28;;;17.15;71.99
15007;BME280;7599;50.748;13.142;2023-08-08T14:48:04;95406.31;;;17.08;72.60
15007;BME280;7599;50.748;13.142;2023-08-08T14:51:23;95423.44;;;17.13;72.12
15007;BME280;7599;50.748;13.142;2023-08-08T14:55:57;95418.03;;;17.13;72.36
15007;BME280;7599;50.748;13.142;2023-08-08T14:59:00;95418.41;;;17.11;72.64
15007;BME280;7599;50.748;13.142;2023-08-08T15:02:03;95426.56;;;17.15;72.60
15007;BME280;7599;50.748;13.142;2023-08-08T15:05:07;95435.50;;;17.15;72.08
15007;BME280;7599;50.748;13.142;2023-08-08T15:08:10;95420.34;;;17.14;72.22
15007;BME280;7599;50.748;13.142;2023-08-08T15:11:15;95436.31;;;17.16;72.12
15007;BME280;7599;50.748;13.142;2023-08-08T15:14:22;95444.03;;;17.14;72.51
15007;BME280;7599;50.748;13.142;2023-08-08T15:17:27;95442.84;;;17.11;72.65
15007;BME280;7599;50.748;13.142;2023-08-08T15:20:31;95447.16;;;17.16;72.31
15007;BME280;7599;50.748;13.142;2023-08-08T15:23:46;95440.91;;;17.12;72.68
15007;BME280;7599;50.748;13.142;2023-08-08T15:26:50;95451.75;;;17.12;72.45
15007;BME280;7599;50.748;13.142;2023-08-08T15:29:53;95457.97;;;17.12;72.34
15007;BME280;7599;50.748;13.142;2023-08-08T15:32:57;95464.19;;;17.13;72.55
15007;BME280;7599;50.748;13.142;2023-08-08T15:36:03;95464.59;;;17.15;72.39
15007;BME280;7599;50.748;13.142;2023-08-08T15:39:07;95457.97;;;17.12;72.73
15007;BME280;7599;50.748;13.142;2023-08-08T15:42:11;95459.47;;;17.09;72.65
15007;BME280;7599;50.748;13.142;2023-08-08T15:45:18;95456.44;;;17.15;72.54
15007;BME280;7599;50.748;13.142;2023-08-08T15:48:21;95456.44;;;17.15;73.00
15007;BME280;7599;50.748;13.142;2023-08-08T15:51:24;95454.88;;;17.14;72.99
15007;BME280;7599;50.748;13.142;2023-08-08T15:54:27;95470.41;;;17.13;72.49
15007;BME280;7599;50.748;13.142;2023-08-08T15:57:40;95500.66;;;17.15;72.92
15007;BME280;7599;50.748;13.142;2023-08-08T16:00:44;95499.88;;;17.15;73.12
15007;BME280;7599;50.748;13.142;2023-08-08T16:03:50;95525.91;;;17.16;72.61
15007;BME280;7599;50.748;13.142;2023-08-08T16:06:52;95529.34;;;17.13;72.40
15007;BME280;7599;50.748;13.142;2023-08-08T16:10:15;95531.69;;;17.14;72.34
15007;BME280;7599;50.748;13.142;2023-08-08T16:13:25;95532.13;;;17.16;72.50
15007;BME280;7599;50.748;13.142;2023-08-08T16:16:28;95528.19;;;17.14;72.66
15007;BME280;7599;50.748;13.142;2023-08-08T16:19:31;95537.19;;;17.18;72.42
15007;BME280;7599;50.748;13.142;2023-08-08T16:22:33;95543.00;;;17.16;72.97
15007;BME280;7599;50.748;13.142;2023-08-08T16:25:48;95537.56;;;17.16;72.84
15007;BME280;7599;50.748;13.142;2023-08-08T16:28:56;95529.03;;;17.18;72.75
15007;BME280;7599;50.748;13.142;2023-08-08T16:31:59;95531.75;;;17.18;72.78
15007;BME280;7599;50.748;13.142;2023-08-08T16:35:02;95514.63;;;17.14;72.54
15007;BME280;7599;50.748;13.142;2023-08-08T16:38:07;95529.03;;;17.18;72.93
15007;BME280;7599;50.748;13.142;2023-08-08T16:41:13;95526.31;;;17.18;72.80
15007;BME280;7599;50.748;13.142;2023-08-08T16:44:20;95524.75;;;17.17;72.83
15007;BME280;7599;50.748;13.142;2023-08-08T16:47:29;95521.66;;;17.18;72.78
15007;BME280;7599;50.748;13.142;2023-08-08T16:50:32;95517.78;;;17.16;72.79
15007;BME280;7599;50.748;13.142;2023-08-08T16:53:39;95530.19;;;17.17;73.02
15007;BME280;7599;50.748;13.142;2023-08-08T16:56:43;95538.34;;;17.17;72.95
15007;BME280;7599;50.748;13.142;2023-08-08T16:59:58;95533.69;;;17.17;73.14
15007;BME280;7599;50.748;13.142;2023-08-08T17:03:11;95536.41;;;17.17;72.95
15007;BME280;7599;50.748;13.142;2023-08-08T17:06:23;95521.66;;;17.18;73.13
15007;BME280;7599;50.748;13.142;2023-08-08T17:09:26;95526.69;;;17.16;72.95
15007;BME280;7599;50.748;13.142;2023-08-08T17:12:39;95532.19;;;17.20;72.95
15007;BME280;7599;50.748;13.142;2023-08-08T17:15:44;95529.81;;;17.18;73.00
15007;BME280;7599;50.748;13.142;2023-08-08T17:18:47;95520.50;;;17.19;73.05
15007;BME280;7599;50.748;13.142;2023-08-08T17:25:29;95513.91;;;17.17;72.72
15007;BME280;7599;50.748;13.142;2023-08-08T17:28:40;95509.25;;;17.17;73.22
15007;BME280;7599;50.748;13.142;2023-08-08T17:31:44;95517.03;;;17.19;73.06
15007;BME280;7599;50.748;13.142;2023-08-08T17:35:06;95508.53;;;17.20;73.40
15007;BME280;7599;50.748;13.142;2023-08-08T17:38:09;95507.75;;;17.20;72.82
15007;BME280;7599;50.748;13.142;2023-08-08T17:41:20;95507.38;;;17.21;72.76
15007;BME280;7599;50.748;13.142;2023-08-08T17:44:41;95508.53;;;17.20;73.34
15007;BME280;7599;50.748;13.142;2023-08-08T17:47:48;95503.81;;;17.17;73.12
15007;BME280;7599;50.748;13.142;2023-08-08T17:50:53;95503.81;;;17.17;73.02
15007;BME280;7599;50.748;13.142;2023-08-08T17:54:05;95517.06;;;17.22;72.85
15007;BME280;7599;50.748;13.142;2023-08-08T17:57:11;95516.66;;;17.20;73.24
15007;BME280;7599;50.748;13.142;2023-08-08T18:00:19;95513.19;;;17.20;73.33
15007;BME280;7599;50.748;13.142;2023-08-08T18:03:24;95520.16;;;17.21;73.49
15007;BME280;7599;50.748;13.142;2023-08-08T18:06:27;95517.44;;;17.21;73.42
15007;BME280;7599;50.748;13.142;2023-08-08T18:09:44;95505.03;;;17.20;73.45
15007;BME280;7599;50.748;13.142;2023-08-08T18:13:31;95507.75;;;17.20;73.24
15007;BME280;7599;50.748;13.142;2023-08-08T18:16:35;95512.78;;;17.21;73.38
15007;BME280;7599;50.748;13.142;2023-08-08T18:19:53;95512.78;;;17.21;73.32
15007;BME280;7599;50.748;13.142;2023-08-08T18:22:55;95510.09;;;17.21;73.28
15007;BME280;7599;50.748;13.142;2023-08-08T18:26:03;95508.16;;;17.22;73.33
15007;BME280;7599;50.748;13.142;2023-08-08T18:29:55;95512.41;;;17.23;73.22
15007;BME280;7599;50.748;13.142;2023-08-08T18:33:27;95507.38;;;17.21;73.67
15007;BME280;7599;50.748;13.142;2023-08-08T18:36:33;95508.53;;;17.24;73.31
15007;BME280;7599;50.748;13.142;2023-08-08T18:39:58;95506.59;;;17.21;73.42
15007;BME280;7599;50.748;13.142;2023-08-08T18:43:15;95512.78;;;17.21;73.57
15007;BME280;7599;50.748;13.142;2023-08-08T18:46:40;95514.34;;;17.22;73.49
15007;BME280;7599;50.748;13.142;2023-08-08T18:50:23;95523.66;;;17.21;73.35
15007;BME280;7599;50.748;13.142;2023-08-08T18:53:38;95520.16;;;17.21;73.58
15007;BME280;7599;50.748;13.142;2023-08-08T18:57:19;95518.22;;;17.21;73.34
15007;BME280;7599;50.748;13.142;2023-08-08T19:00:45;95518.59;;;17.20;73.28
15007;BME280;7599;50.748;13.142;2023-08-08T19:03:54;95512.03;;;17.21;73.52
15007;BME280;7599;50.748;13.142;2023-08-08T19:07:05;95517.84;;;17.23;73.25